createdAt,value
2019-05-21T00:00:13.367Z,12.70
2019-05-21T00:02:42.770Z,12.70
2019-05-21T00:05:12.582Z,12.70
2019-05-21T00:07:41.967Z,12.60
2019-05-21T00:10:12.107Z,12.60
2019-05-21T00:12:41.509Z,12.60
2019-05-21T00:15:11.389Z,12.60
2019-05-21T00:17:40.716Z,12.60
2019-05-21T00:20:10.637Z,12.50
2019-05-21T00:22:40.059Z,12.50
2019-05-21T00:25:10.418Z,12.60
2019-05-21T00:27:39.870Z,12.60
2019-05-21T00:31:04.088Z,12.60
2019-05-21T00:34:41.786Z,12.60
2019-05-21T00:37:54.233Z,12.40
2019-05-21T00:41:18.350Z,12.40
2019-05-21T00:43:55.023Z,12.40
2019-05-21T00:46:24.417Z,12.30
2019-05-21T00:48:54.367Z,12.40
2019-05-21T00:51:23.762Z,12.40
2019-05-21T00:53:53.146Z,12.30
2019-05-21T00:56:22.552Z,12.40
2019-05-21T00:58:51.964Z,12.40
2019-05-21T01:01:21.352Z,12.40
2019-05-21T01:03:50.730Z,12.40
2019-05-21T01:06:20.204Z,12.30
2019-05-21T01:08:49.672Z,12.40
2019-05-21T01:11:19.062Z,12.40
2019-05-21T01:13:48.465Z,12.40
2019-05-21T01:16:17.849Z,12.50
2019-05-21T01:18:47.702Z,12.50
2019-05-21T01:21:17.234Z,12.50
2019-05-21T01:23:46.614Z,12.50
2019-05-21T01:26:16.042Z,12.60
2019-05-21T01:28:45.424Z,12.70
2019-05-21T01:31:14.815Z,12.60
2019-05-21T01:33:44.211Z,12.60
2019-05-21T01:36:13.652Z,12.50
2019-05-21T01:38:43.055Z,12.60
2019-05-21T01:41:12.444Z,12.60
2019-05-21T01:43:41.973Z,12.60
2019-05-21T01:46:11.353Z,12.60
2019-05-21T01:48:40.735Z,12.50
2019-05-21T01:51:10.858Z,12.50
2019-05-21T01:53:41.433Z,12.50
2019-05-21T01:56:10.839Z,12.40
2019-05-21T01:58:40.289Z,12.50
2019-05-21T02:01:09.676Z,12.40
2019-05-21T02:03:39.062Z,12.40
2019-05-21T02:06:08.612Z,12.50
2019-05-21T02:08:38.020Z,12.40
2019-05-21T02:11:07.471Z,12.40
2019-05-21T02:13:36.870Z,12.40
2019-05-21T02:16:06.323Z,12.30
2019-05-21T02:18:35.704Z,12.40
2019-05-21T02:21:05.270Z,12.20
2019-05-21T02:23:34.655Z,12.30
2019-05-21T02:26:04.516Z,12.30
2019-05-21T02:28:33.897Z,12.30
2019-05-21T02:31:03.293Z,12.20
2019-05-21T02:33:32.688Z,12.30
2019-05-21T02:36:02.161Z,12.10
2019-05-21T02:38:31.545Z,12.10
2019-05-21T02:41:00.998Z,12.20
2019-05-21T02:43:30.452Z,12.10
2019-05-21T02:45:59.903Z,12.10
2019-05-21T02:48:29.311Z,12.00
2019-05-21T02:50:58.715Z,12.00
2019-05-21T02:53:28.085Z,12.00
2019-05-21T02:55:57.469Z,12.10
2019-05-21T02:58:26.851Z,12.00
2019-05-21T03:00:57.874Z,12.00
2019-05-21T03:03:31.987Z,12.00
2019-05-21T03:06:13.088Z,12.00
2019-05-21T03:08:32.569Z,12.00
2019-05-21T03:11:02.019Z,12.00
2019-05-21T03:13:31.397Z,12.00
2019-05-21T03:16:00.783Z,12.00
2019-05-21T03:18:30.164Z,12.00
2019-05-21T03:20:59.549Z,12.00
2019-05-21T03:23:28.929Z,12.00
2019-05-21T03:25:58.328Z,12.00
2019-05-21T03:28:27.709Z,12.00
2019-05-21T03:30:57.094Z,12.00
2019-05-21T03:33:26.475Z,12.00
2019-05-21T03:35:55.894Z,12.00
2019-05-21T03:38:25.269Z,12.00
2019-05-21T03:40:54.660Z,11.90
2019-05-21T03:43:24.437Z,11.90
2019-05-21T03:45:53.850Z,11.90
2019-05-21T03:48:23.232Z,11.90
2019-05-21T03:50:52.609Z,11.90
2019-05-21T03:53:22.092Z,11.80
2019-05-21T03:55:51.555Z,11.80
2019-05-21T03:58:20.943Z,11.90
2019-05-21T04:00:51.974Z,11.80
2019-05-21T04:03:21.286Z,11.80
2019-05-21T04:05:50.658Z,11.70
2019-05-21T04:08:20.804Z,11.70
2019-05-21T04:10:51.841Z,11.70
2019-05-21T04:13:21.141Z,11.80
2019-05-21T04:15:52.164Z,11.80
2019-05-21T04:18:29.628Z,11.60
2019-05-21T04:20:59.012Z,11.70
2019-05-21T04:23:28.396Z,11.80
2019-05-21T04:25:57.785Z,11.70
2019-05-21T04:28:27.163Z,11.70
2019-05-21T04:30:56.552Z,11.70
2019-05-21T04:33:25.935Z,11.60
2019-05-21T04:35:55.535Z,11.70
2019-05-21T04:38:24.927Z,11.60
2019-05-21T04:40:54.308Z,11.60
2019-05-21T04:43:23.757Z,11.70
2019-05-21T04:45:53.134Z,11.70
2019-05-21T04:48:22.520Z,11.70
2019-05-21T04:50:51.899Z,11.90
2019-05-21T04:53:21.285Z,11.80
2019-05-21T04:55:50.686Z,11.80
2019-05-21T04:58:20.065Z,11.80
2019-05-21T05:00:49.432Z,11.90
2019-05-21T05:03:18.819Z,11.90
2019-05-21T05:05:48.196Z,11.80
2019-05-21T05:08:17.582Z,11.80
2019-05-21T05:10:49.257Z,11.80
2019-05-21T05:13:18.072Z,11.70
2019-05-21T05:15:47.461Z,11.80
2019-05-21T05:18:16.846Z,11.80
2019-05-21T05:20:46.231Z,11.80
2019-05-21T05:23:15.610Z,11.80
2019-05-21T05:25:44.998Z,11.80
2019-05-21T05:28:14.385Z,11.80
2019-05-21T05:30:43.950Z,11.70
2019-05-21T05:33:13.330Z,11.70
2019-05-21T05:35:42.867Z,11.80
2019-05-21T05:38:12.247Z,11.80
2019-05-21T05:40:41.631Z,11.90
2019-05-21T05:43:11.013Z,11.90
2019-05-21T05:45:40.450Z,11.80
2019-05-21T05:48:09.838Z,11.90
2019-05-21T05:50:49.867Z,12.00
2019-05-21T05:53:19.230Z,12.00
2019-05-21T05:55:48.605Z,11.90
2019-05-21T05:58:18.115Z,11.90
2019-05-21T06:00:47.496Z,11.90
2019-05-21T06:03:16.879Z,11.90
2019-05-21T06:05:46.284Z,12.00
2019-05-21T06:08:15.686Z,12.10
2019-05-21T06:10:45.081Z,12.00
2019-05-21T06:13:14.502Z,11.90
2019-05-21T06:15:43.888Z,12.00
2019-05-21T06:18:13.274Z,12.00
2019-05-21T06:20:42.672Z,12.10
2019-05-21T06:23:12.039Z,12.00
2019-05-21T06:25:41.423Z,12.10
2019-05-21T06:28:10.901Z,12.20
2019-05-21T06:30:40.267Z,12.20
2019-05-21T06:33:09.653Z,12.20
2019-05-21T06:35:39.036Z,12.20
2019-05-21T06:38:17.088Z,12.20
2019-05-21T06:40:39.527Z,12.20
2019-05-21T06:43:09.727Z,12.20
2019-05-21T06:45:39.279Z,12.10
2019-05-21T06:48:08.733Z,12.10
2019-05-21T06:50:38.303Z,12.10
2019-05-21T06:53:07.680Z,12.20
2019-05-21T06:55:37.057Z,12.20
2019-05-21T06:58:06.453Z,12.30
2019-05-21T07:00:35.840Z,12.30
2019-05-21T07:03:05.404Z,12.40
2019-05-21T07:05:35.133Z,12.40
2019-05-21T07:08:04.793Z,12.30
2019-05-21T07:10:34.173Z,12.40
2019-05-21T07:13:03.554Z,12.40
2019-05-21T07:15:32.949Z,12.50
2019-05-21T07:18:02.324Z,12.50
2019-05-21T07:20:31.703Z,12.50
2019-05-21T07:23:01.248Z,12.50
2019-05-21T07:25:30.749Z,12.50
2019-05-21T07:28:00.137Z,12.50
2019-05-21T07:30:29.513Z,12.50
2019-05-21T07:32:59.051Z,12.50
2019-05-21T07:35:28.387Z,12.60
2019-05-21T07:37:57.818Z,12.60
2019-05-21T07:40:27.140Z,12.60
2019-05-21T07:42:56.517Z,12.70
2019-05-21T07:45:25.900Z,12.60
2019-05-21T07:47:55.281Z,12.60
2019-05-21T07:50:24.669Z,12.60
2019-05-21T07:52:54.048Z,12.60
2019-05-21T07:55:23.442Z,12.60
2019-05-21T07:57:52.830Z,12.60
2019-05-21T08:00:22.918Z,12.60
2019-05-21T08:02:52.293Z,12.80
2019-05-21T08:05:21.676Z,12.70
2019-05-21T08:07:51.067Z,12.70
2019-05-21T08:10:20.463Z,12.70
2019-05-21T08:12:49.830Z,12.70
2019-05-21T08:15:19.210Z,12.60
2019-05-21T08:17:48.587Z,12.70
2019-05-21T08:20:19.180Z,12.80
2019-05-21T08:22:48.731Z,12.80
2019-05-21T08:25:18.116Z,12.80
2019-05-21T08:27:47.506Z,12.70
2019-05-21T08:30:17.508Z,12.70
2019-05-21T08:32:46.866Z,12.80
2019-05-21T08:35:16.326Z,12.80
2019-05-21T08:37:45.765Z,12.80
2019-05-21T08:40:15.780Z,12.80
2019-05-21T08:42:45.165Z,12.90
2019-05-21T08:45:15.463Z,12.90
2019-05-21T08:47:44.825Z,13.00
2019-05-21T08:50:14.813Z,13.00
2019-05-21T08:52:44.207Z,12.90
2019-05-21T08:55:13.690Z,12.90
2019-05-21T08:57:43.091Z,12.90
2019-05-21T09:00:16.427Z,12.80
2019-05-21T09:02:45.870Z,12.80
2019-05-21T09:05:15.592Z,12.90
2019-05-21T09:07:45.101Z,12.90
2019-05-21T09:10:15.207Z,12.90
2019-05-21T09:12:45.932Z,12.90
2019-05-21T09:15:17.323Z,12.70
2019-05-21T09:17:46.778Z,12.70
2019-05-21T09:20:18.406Z,12.80
2019-05-21T09:22:47.793Z,12.80
2019-05-21T09:25:17.686Z,12.80
2019-05-21T09:27:47.075Z,12.80
2019-05-21T09:30:19.764Z,13.00
2019-05-21T09:32:49.118Z,12.90
2019-05-21T09:35:18.669Z,12.90
2019-05-21T09:37:48.111Z,12.90
2019-05-21T09:40:19.782Z,12.90
2019-05-21T09:42:49.169Z,12.90
2019-05-21T09:45:18.880Z,13.00
2019-05-21T09:47:48.284Z,13.00
2019-05-21T09:50:19.050Z,13.00
2019-05-21T09:52:48.665Z,13.00
2019-05-21T09:55:18.448Z,13.10
2019-05-21T09:57:55.608Z,13.20
2019-05-21T10:00:33.808Z,13.30
2019-05-21T10:03:11.672Z,13.30
2019-05-21T10:05:41.048Z,13.20
2019-05-21T10:08:10.698Z,13.20
2019-05-21T10:10:40.253Z,13.20
2019-05-21T10:13:09.638Z,13.40
2019-05-21T10:15:39.051Z,13.40
2019-05-21T10:18:08.418Z,13.50
2019-05-21T10:20:38.768Z,13.50
2019-05-21T10:23:08.154Z,13.50
2019-05-21T10:25:37.551Z,13.50
2019-05-21T10:28:06.931Z,13.50
2019-05-21T10:30:36.482Z,13.60
2019-05-21T10:33:05.862Z,13.60
2019-05-21T10:35:35.241Z,13.60
2019-05-21T10:38:04.818Z,13.60
2019-05-21T10:40:34.217Z,13.60
2019-05-21T10:43:03.591Z,13.70
2019-05-21T10:45:32.965Z,13.70
2019-05-21T10:48:02.343Z,13.80
2019-05-21T10:50:31.730Z,13.70
2019-05-21T10:53:01.114Z,13.60
2019-05-21T10:55:30.487Z,13.60
2019-05-21T10:58:00.137Z,13.80
2019-05-21T11:00:30.288Z,13.70
2019-05-21T11:03:01.317Z,13.70
2019-05-21T11:05:32.339Z,13.60
2019-05-21T11:08:22.964Z,13.60
2019-05-21T11:10:32.821Z,13.60
2019-05-21T11:13:02.276Z,13.50
2019-05-21T11:15:31.739Z,13.50
2019-05-21T11:18:10.765Z,13.60
2019-05-21T11:20:32.218Z,13.70
2019-05-21T11:23:01.600Z,13.70
2019-05-21T11:25:31.002Z,13.60
2019-05-21T11:28:00.360Z,13.70
2019-05-21T11:30:29.798Z,13.70
2019-05-21T11:32:59.181Z,13.70
2019-05-21T11:35:28.557Z,13.70
2019-05-21T11:38:00.581Z,13.80
2019-05-21T11:40:30.665Z,13.80
2019-05-21T11:43:00.062Z,13.70
2019-05-21T11:45:32.796Z,13.80
2019-05-21T11:48:00.548Z,13.80
2019-05-21T11:50:29.928Z,13.80
2019-05-21T11:52:59.308Z,13.70
2019-05-21T11:55:28.686Z,13.80
2019-05-21T11:57:58.095Z,13.80
2019-05-21T12:00:28.928Z,13.80
2019-05-21T12:02:58.359Z,13.90
2019-05-21T12:05:27.725Z,13.90
2019-05-21T12:07:57.076Z,14.10
2019-05-21T12:10:26.448Z,14.10
2019-05-21T12:12:55.837Z,14.10
2019-05-21T12:15:25.213Z,14.10
2019-05-21T12:17:54.604Z,14.20
2019-05-21T12:20:36.048Z,14.20
2019-05-21T12:22:55.580Z,14.30
2019-05-21T12:25:24.957Z,14.40
2019-05-21T12:27:54.343Z,14.50
2019-05-21T12:30:24.852Z,14.60
2019-05-21T12:32:54.491Z,14.50
2019-05-21T12:35:23.873Z,14.60
2019-05-21T12:37:53.253Z,14.60
2019-05-21T12:40:23.040Z,14.40
2019-05-21T12:42:52.422Z,14.20
2019-05-21T12:45:21.811Z,14.20
2019-05-21T12:47:51.240Z,14.20
2019-05-21T12:50:21.018Z,14.20
2019-05-21T12:52:50.401Z,14.20
2019-05-21T12:55:19.766Z,14.10
2019-05-21T12:57:49.151Z,14.10
2019-05-21T13:00:19.646Z,14.20
2019-05-21T13:02:49.030Z,14.10
2019-05-21T13:05:18.483Z,14.30
2019-05-21T13:07:47.856Z,14.20
2019-05-21T13:10:17.483Z,14.20
2019-05-21T13:12:46.930Z,14.10
2019-05-21T13:15:16.622Z,13.90
2019-05-21T13:17:45.998Z,14.00
2019-05-21T13:20:17.163Z,14.00
2019-05-21T13:22:46.551Z,14.20
2019-05-21T13:25:16.004Z,14.20
2019-05-21T13:27:45.390Z,14.00
2019-05-21T13:30:15.279Z,13.80
2019-05-21T13:32:44.664Z,13.70
2019-05-21T13:35:14.784Z,13.90
2019-05-21T13:37:44.163Z,14.00
2019-05-21T13:40:15.717Z,14.00
2019-05-21T13:42:45.093Z,14.00
2019-05-21T13:45:15.553Z,13.80
2019-05-21T13:47:44.933Z,13.90
2019-05-21T13:50:15.022Z,13.90
2019-05-21T13:52:44.418Z,13.90
2019-05-21T13:55:14.335Z,13.90
2019-05-21T13:57:43.723Z,13.90
2019-05-21T14:00:18.485Z,13.70
2019-05-21T14:02:48.033Z,13.60
2019-05-21T14:05:17.952Z,13.70
2019-05-21T14:07:47.328Z,13.60
2019-05-21T14:10:20.694Z,13.50
2019-05-21T14:12:48.317Z,13.50
2019-05-21T14:15:18.066Z,13.40
2019-05-21T14:17:47.445Z,13.50
2019-05-21T14:20:17.337Z,13.50
2019-05-21T14:22:46.715Z,13.50
2019-05-21T14:25:16.165Z,13.40
2019-05-21T14:27:45.541Z,13.40
2019-05-21T14:30:15.730Z,13.40
2019-05-21T14:32:45.268Z,13.40
2019-05-21T14:35:14.856Z,13.40
2019-05-21T14:37:44.231Z,13.30
2019-05-21T14:40:30.375Z,13.40
2019-05-21T14:42:59.303Z,13.30
2019-05-21T14:45:17.513Z,13.30
2019-05-21T14:47:46.887Z,13.30
2019-05-21T14:50:17.881Z,13.40
2019-05-21T14:52:51.958Z,13.40
2019-05-21T14:55:18.805Z,13.50
2019-05-21T14:57:48.284Z,13.40
2019-05-21T15:00:32.683Z,13.40
2019-05-21T15:03:02.076Z,13.30
2019-05-21T15:05:31.899Z,13.50
2019-05-21T15:08:01.277Z,13.50
2019-05-21T15:10:46.838Z,13.50
2019-05-21T15:13:05.668Z,13.50
2019-05-21T15:15:33.486Z,13.50
2019-05-21T15:18:02.980Z,13.50
2019-05-21T15:20:39.730Z,13.30
2019-05-21T15:23:09.125Z,13.30
2019-05-21T15:25:38.495Z,13.40
2019-05-21T15:28:07.957Z,13.40
2019-05-21T15:30:37.411Z,13.30
2019-05-21T15:33:07.158Z,13.30
2019-05-21T15:35:36.645Z,13.30
2019-05-21T15:38:06.101Z,13.30
2019-05-21T15:40:35.488Z,13.30
2019-05-21T15:43:05.190Z,13.30
2019-05-21T15:45:34.646Z,13.40
2019-05-21T15:48:04.098Z,13.30
2019-05-21T15:50:33.478Z,13.30
2019-05-21T15:53:03.164Z,13.30
2019-05-21T15:55:32.564Z,13.50
2019-05-21T15:58:01.945Z,13.40
2019-05-21T16:00:31.671Z,13.40
2019-05-21T16:03:01.055Z,13.20
2019-05-21T16:05:30.509Z,13.30
2019-05-21T16:07:59.910Z,13.30
2019-05-21T16:10:29.286Z,13.40
2019-05-21T16:12:58.670Z,13.30
2019-05-21T16:15:28.265Z,13.30
2019-05-21T16:17:57.951Z,13.30
2019-05-21T16:20:29.866Z,13.40
2019-05-21T16:22:59.249Z,13.30
2019-05-21T16:25:28.931Z,13.30
2019-05-21T16:27:58.316Z,13.20
2019-05-21T16:30:27.719Z,13.10
2019-05-21T16:32:57.732Z,13.20
2019-05-21T16:35:27.366Z,13.10
2019-05-21T16:37:56.737Z,13.10
2019-05-21T16:40:26.123Z,13.00
2019-05-21T16:42:55.505Z,13.00
2019-05-21T16:45:25.059Z,13.10
2019-05-21T16:47:55.007Z,13.00
2019-05-21T16:50:24.536Z,13.10
2019-05-21T16:52:54.176Z,13.10
2019-05-21T16:55:23.584Z,13.10
2019-05-21T16:57:56.116Z,13.10
2019-05-21T17:00:24.621Z,13.10
2019-05-21T17:02:53.998Z,13.10
2019-05-21T17:05:23.383Z,13.10
2019-05-21T17:07:52.762Z,13.10
2019-05-21T17:10:22.141Z,13.10
2019-05-21T17:12:51.521Z,13.10
2019-05-21T17:15:20.973Z,13.00
2019-05-21T17:17:50.353Z,13.00
2019-05-21T17:20:19.802Z,13.00
2019-05-21T17:22:49.182Z,13.00
2019-05-21T17:25:18.742Z,13.00
2019-05-21T17:27:48.121Z,13.00
2019-05-21T17:30:17.810Z,13.00
2019-05-21T17:32:47.191Z,13.10
2019-05-21T17:35:17.092Z,13.00
2019-05-21T17:37:47.242Z,13.10
2019-05-21T17:40:16.806Z,13.10
2019-05-21T17:42:46.447Z,13.00
2019-05-21T17:45:15.927Z,12.90
2019-05-21T17:47:45.280Z,12.90
2019-05-21T17:50:15.469Z,12.90
2019-05-21T17:52:44.857Z,12.90
2019-05-21T17:55:15.061Z,12.70
2019-05-21T17:57:45.230Z,12.80
2019-05-21T18:00:17.549Z,12.70
2019-05-21T18:02:47.475Z,12.70
2019-05-21T18:05:17.264Z,12.80
2019-05-21T18:07:46.645Z,12.70
2019-05-21T18:10:17.079Z,12.80
2019-05-21T18:12:46.621Z,12.80
2019-05-21T18:15:18.024Z,12.80
2019-05-21T18:17:47.974Z,12.70
2019-05-21T18:20:19.166Z,12.70
2019-05-21T18:22:50.257Z,12.60
2019-05-21T18:25:20.045Z,12.70
2019-05-21T18:27:49.590Z,12.60
2019-05-21T18:30:19.380Z,12.60
2019-05-21T18:32:49.801Z,12.60
2019-05-21T18:35:19.354Z,12.60
2019-05-21T18:37:49.109Z,12.60
2019-05-21T18:40:18.876Z,12.60
2019-05-21T18:42:48.410Z,12.60
2019-05-21T18:45:18.026Z,12.60
2019-05-21T18:47:47.411Z,12.50
2019-05-21T18:50:17.497Z,12.40
2019-05-21T18:52:49.658Z,12.50
2019-05-21T18:55:18.070Z,12.50
2019-05-21T18:57:47.481Z,12.40
2019-05-21T19:00:17.287Z,12.40
2019-05-21T19:02:47.180Z,12.40
2019-05-21T19:05:16.726Z,12.40
2019-05-21T19:07:46.127Z,12.40
2019-05-21T19:10:15.919Z,12.30
2019-05-21T19:12:45.300Z,12.30
2019-05-21T19:15:15.125Z,12.30
2019-05-21T19:17:44.578Z,12.30
2019-05-21T19:20:15.277Z,12.30
2019-05-21T19:22:45.109Z,12.20
2019-05-21T19:25:14.910Z,12.30
2019-05-21T19:27:44.468Z,12.20
2019-05-21T19:30:14.855Z,12.20
2019-05-21T19:32:44.240Z,12.20
2019-05-21T19:35:14.130Z,12.30
2019-05-21T19:37:43.522Z,12.20
2019-05-21T19:40:13.809Z,12.20
2019-05-21T19:42:54.395Z,12.10
2019-05-21T19:45:15.093Z,12.10
2019-05-21T19:47:44.457Z,12.10
2019-05-21T19:50:15.052Z,12.10
2019-05-21T19:52:44.508Z,12.00
2019-05-21T19:55:15.876Z,12.00
2019-05-21T19:57:45.321Z,12.00
2019-05-21T20:00:19.450Z,12.10
2019-05-21T20:02:49.004Z,12.10
2019-05-21T20:05:18.395Z,12.10
2019-05-21T20:07:47.773Z,12.00
2019-05-21T20:10:18.794Z,12.00
2019-05-21T20:12:51.004Z,12.10
2019-05-21T20:15:20.721Z,12.20
2019-05-21T20:18:06.200Z,12.20
2019-05-21T20:20:26.224Z,12.10
2019-05-21T20:22:57.249Z,12.20
2019-05-21T20:25:28.235Z,12.10
2019-05-21T20:27:58.153Z,12.20
2019-05-21T20:30:27.872Z,12.20
2019-05-21T20:32:57.598Z,12.20
2019-05-21T20:35:27.609Z,12.20
2019-05-21T20:37:57.340Z,12.20
2019-05-21T20:40:27.425Z,12.20
2019-05-21T20:42:57.034Z,12.30
2019-05-21T20:45:27.908Z,12.20
2019-05-21T20:47:58.595Z,12.20
2019-05-21T20:50:28.050Z,12.20
2019-05-21T20:52:57.780Z,12.20
2019-05-21T20:55:27.605Z,12.20
2019-05-21T20:57:57.050Z,12.20
2019-05-21T21:00:31.610Z,12.20
2019-05-21T21:03:01.679Z,12.10
2019-05-21T21:05:31.693Z,12.20
2019-05-21T21:08:01.161Z,12.20
2019-05-21T21:10:30.617Z,12.20
2019-05-21T21:13:00.941Z,12.20
2019-05-21T21:15:31.433Z,12.20
2019-05-21T21:18:01.586Z,12.20
2019-05-21T21:20:31.734Z,12.20
2019-05-21T21:23:01.552Z,12.20
2019-05-21T21:25:31.948Z,12.20
2019-05-21T21:28:01.638Z,12.20
2019-05-21T21:30:32.801Z,12.10
2019-05-21T21:33:03.990Z,12.20
2019-05-21T21:35:34.208Z,12.20
2019-05-21T21:38:05.064Z,12.30
2019-05-21T21:40:34.932Z,12.20
2019-05-21T21:43:07.817Z,12.20
2019-05-21T21:45:37.474Z,12.20
2019-05-21T21:48:07.896Z,12.30
2019-05-21T21:50:38.474Z,12.20
2019-05-21T21:53:08.225Z,12.30
2019-05-21T21:55:37.645Z,12.30
2019-05-21T21:58:07.031Z,12.30
2019-05-21T22:01:00.588Z,12.30
2019-05-21T22:03:34.454Z,12.30
2019-05-21T22:06:08.916Z,12.20
2019-05-21T22:08:38.827Z,12.20
2019-05-21T22:11:09.324Z,12.30
2019-05-21T22:13:39.021Z,12.30
2019-05-21T22:16:09.081Z,12.30
2019-05-21T22:18:38.635Z,12.30
2019-05-21T22:21:08.262Z,12.40
2019-05-21T22:23:37.986Z,12.40
2019-05-21T22:26:07.371Z,12.30
2019-05-21T22:28:36.822Z,12.20
2019-05-21T22:31:06.281Z,12.30
2019-05-21T22:33:36.155Z,12.30
2019-05-21T22:36:06.668Z,12.30
2019-05-21T22:38:36.046Z,12.40
2019-05-21T22:41:05.429Z,12.40
2019-05-21T22:43:35.138Z,12.40
2019-05-21T22:46:05.011Z,12.30
2019-05-21T22:48:34.462Z,12.40
2019-05-21T22:51:04.082Z,12.40
2019-05-21T22:53:33.549Z,12.30
2019-05-21T22:56:03.006Z,12.40
2019-05-21T22:58:32.452Z,12.40
2019-05-21T23:01:02.792Z,12.40
2019-05-21T23:03:32.173Z,12.30
2019-05-21T23:06:01.556Z,12.40
2019-05-21T23:08:31.111Z,12.40
2019-05-21T23:11:00.658Z,12.40
2019-05-21T23:13:30.044Z,12.50
2019-05-21T23:16:00.553Z,12.50
2019-05-21T23:18:29.938Z,12.50
2019-05-21T23:21:00.315Z,12.40
2019-05-21T23:23:31.219Z,12.40
2019-05-21T23:26:01.264Z,12.30
2019-05-21T23:28:30.891Z,12.30
2019-05-21T23:31:02.013Z,12.30
2019-05-21T23:33:32.322Z,12.30
2019-05-21T23:36:02.277Z,12.20
2019-05-21T23:38:32.380Z,12.20
2019-05-21T23:41:04.634Z,12.20
2019-05-21T23:43:35.063Z,12.30
2019-05-21T23:46:05.524Z,12.20
2019-05-21T23:48:35.934Z,12.20
2019-05-21T23:51:05.315Z,12.20
2019-05-21T23:53:34.878Z,12.20
2019-05-21T23:56:04.474Z,12.20
2019-05-21T23:58:34.292Z,12.10
